sensor_id;sensor_type;location;lat;lon;timestamp;pressure;altitude;pressure_sealevel;temperature;humidity
6899;BME280;3488;42.616;23.350;2023-01-06T00:02:24;62877.25;;;8.60;74.39
6899;BME280;3488;42.616;23.350;2023-01-06T00:04:50;62900.84;;;8.73;74.22
6899;BME280;3488;42.616;23.350;2023-01-06T00:07:17;62912.16;;;8.81;73.98
6899;BME280;3488;42.616;23.350;2023-01-06T00:09:44;62906.09;;;8.83;73.85
6899;BME280;3488;42.616;23.350;2023-01-06T00:12:12;62914.38;;;8.91;76.17
6899;BME280;3488;42.616;23.350;2023-01-06T00:14:38;62927.81;;;9.04;76.26
6899;BME280;3488;42.616;23.350;2023-01-06T00:17:08;62938.59;;;9.12;76.28
6899;BME280;3488;42.616;23.350;2023-01-06T00:19:35;62948.94;;;9.22;76.21
6899;BME280;3488;42.616;23.350;2023-01-06T00:22:02;62950.97;;;9.21;77.11
6899;BME280;3488;42.616;23.350;2023-01-06T00:24:30;62946.94;;;9.22;77.67
6899;BME280;3488;42.616;23.350;2023-01-06T00:26:58;62943.75;;;9.14;77.92
6899;BME280;3488;42.616;23.350;2023-01-06T00:29:26;62942.84;;;9.21;77.98
6899;BME280;3488;42.616;23.350;2023-01-06T00:31:53;62949.94;;;9.20;78.47
6899;BME280;3488;42.616;23.350;2023-01-06T00:34:21;62944.81;;;9.18;78.80
6899;BME280;3488;42.616;23.350;2023-01-06T00:36:48;62946.28;;;9.14;79.74
6899;BME280;3488;42.616;23.350;2023-01-06T00:39:15;62945.25;;;9.13;80.46
6899;BME280;3488;42.616;23.350;2023-01-06T00:41:42;62937.06;;;9.10;81.41
6899;BME280;3488;42.616;23.350;2023-01-06T00:44:27;62924.19;;;9.00;82.46
6899;BME280;3488;42.616;23.350;2023-01-06T00:46:53;62914.31;;;8.88;82.62
6899;BME280;3488;42.616;23.350;2023-01-06T00:49:22;62921.03;;;8.95;82.86
6899;BME280;3488;42.616;23.350;2023-01-06T00:51:49;62908.59;;;8.80;83.85
6899;BME280;3488;42.616;23.350;2023-01-06T00:54:16;62904.00;;;8.78;84.44
6899;BME280;3488;42.616;23.350;2023-01-06T00:56:45;62909.16;;;8.83;84.43
6899;BME280;3488;42.616;23.350;2023-01-06T00:59:14;62899.31;;;8.71;84.22
6899;BME280;3488;42.616;23.350;2023-01-06T01:01:42;62906.03;;;8.80;83.95
6899;BME280;3488;42.616;23.350;2023-01-06T01:04:10;62899.84;;;8.74;84.07
6899;BME280;3488;42.616;23.350;2023-01-06T01:06:40;62902.47;;;8.79;84.99
6899;BME280;3488;42.616;23.350;2023-01-06T01:09:07;62904.00;;;8.78;85.46
6899;BME280;3488;42.616;23.350;2023-01-06T01:11:35;62889.56;;;8.67;85.44
6899;BME280;3488;42.616;23.350;2023-01-06T01:14:20;62897.84;;;8.75;85.53
6899;BME280;3488;42.616;23.350;2023-01-06T01:16:47;62901.94;;;8.76;85.24
6899;BME280;3488;42.616;23.350;2023-01-06T01:19:14;62889.09;;;8.69;85.51
6899;BME280;3488;42.616;23.350;2023-01-06T01:21:43;62890.09;;;8.67;85.58
6899;BME280;3488;42.616;23.350;2023-01-06T01:24:10;62898.31;;;8.73;85.07
6899;BME280;3488;42.616;23.350;2023-01-06T01:26:37;62900.78;;;8.70;85.03
6899;BME280;3488;42.616;23.350;2023-01-06T01:29:04;62894.69;;;8.69;85.38
6899;BME280;3488;42.616;23.350;2023-01-06T01:31:31;62880.78;;;8.58;86.12
6899;BME280;3488;42.616;23.350;2023-01-06T01:33:58;62898.78;;;8.71;85.19
6899;BME280;3488;42.616;23.350;2023-01-06T01:36:26;62895.69;;;8.68;84.61
6899;BME280;3488;42.616;23.350;2023-01-06T01:38:56;62888.53;;;8.66;84.41
6899;BME280;3488;42.616;23.350;2023-01-06T01:41:23;62901.94;;;8.76;83.24
6899;BME280;3488;42.616;23.350;2023-01-06T01:43:52;62901.97;;;8.79;81.34
6899;BME280;3488;42.616;23.350;2023-01-06T01:46:23;62916.91;;;8.91;79.71
6899;BME280;3488;42.616;23.350;2023-01-06T01:48:53;62916.94;;;8.93;77.74
6899;BME280;3488;42.616;23.350;2023-01-06T01:51:25;62925.19;;;8.99;75.39
6899;BME280;3488;42.616;23.350;2023-01-06T01:53:58;62928.31;;;9.04;73.16
6899;BME280;3488;42.616;23.350;2023-01-06T01:56:30;62941.19;;;9.14;71.17
6899;BME280;3488;42.616;23.350;2023-01-06T01:59:02;62933.53;;;9.12;70.70
6899;BME280;3488;42.616;23.350;2023-01-06T02:01:30;62946.88;;;9.20;71.43
6899;BME280;3488;42.616;23.350;2023-01-06T02:03:58;62940.13;;;9.11;71.98
6899;BME280;3488;42.616;23.350;2023-01-06T02:06:26;62932.44;;;9.08;71.58
6899;BME280;3488;42.616;23.350;2023-01-06T02:08:59;62957.78;;;9.33;68.60
6899;BME280;3488;42.616;23.350;2023-01-06T02:11:31;62969.13;;;9.44;63.85
6899;BME280;3488;42.616;23.350;2023-01-06T02:14:06;62972.25;;;9.47;60.88
6899;BME280;3488;42.616;23.350;2023-01-06T02:16:49;62988.22;;;9.60;59.55
6899;BME280;3488;42.616;23.350;2023-01-06T02:19:36;62982.59;;;9.57;60.31
6899;BME280;3488;42.616;23.350;2023-01-06T02:22:20;62983.06;;;9.55;59.53
6899;BME280;3488;42.616;23.350;2023-01-06T02:25:19;62973.28;;;9.48;58.43
6899;BME280;3488;42.616;23.350;2023-01-06T02:28:15;62978.88;;;9.49;59.15
6899;BME280;3488;42.616;23.350;2023-01-06T02:31:20;62968.63;;;9.44;61.88
6899;BME280;3488;42.616;23.350;2023-01-06T02:33:57;62944.78;;;9.15;65.56
6899;BME280;3488;42.616;23.350;2023-01-06T02:36:33;62928.84;;;9.05;66.76
6899;BME280;3488;42.616;23.350;2023-01-06T02:39:14;62922.66;;;8.99;67.34
6899;BME280;3488;42.616;23.350;2023-01-06T02:41:49;62909.19;;;8.86;67.85
6899;BME280;3488;42.616;23.350;2023-01-06T02:44:25;62882.28;;;8.57;69.82
6899;BME280;3488;42.616;23.350;2023-01-06T02:47:02;62869.38;;;8.45;70.03
6899;BME280;3488;42.616;23.350;2023-01-06T02:49:41;62872.53;;;8.50;70.53
6899;BME280;3488;42.616;23.350;2023-01-06T02:52:13;62867.34;;;8.45;70.57
6899;BME280;3488;42.616;23.350;2023-01-06T02:54:51;62878.63;;;8.51;70.25
6899;BME280;3488;42.616;23.350;2023-01-06T02:57:25;62877.16;;;8.55;70.40
6899;BME280;3488;42.616;23.350;2023-01-06T03:00:00;62872.56;;;8.53;69.99
6899;BME280;3488;42.616;23.350;2023-01-06T03:02:31;62869.44;;;8.47;70.03
6899;BME280;3488;42.616;23.350;2023-01-06T03:05:02;62887.94;;;8.60;69.98
6899;BME280;3488;42.616;23.350;2023-01-06T03:07:31;62877.63;;;8.53;68.87
6899;BME280;3488;42.616;23.350;2023-01-06T03:10:00;62884.84;;;8.57;68.72
6899;BME280;3488;42.616;23.350;2023-01-06T03:12:32;62885.84;;;8.58;67.28
6899;BME280;3488;42.616;23.350;2023-01-06T03:15:01;62891.53;;;8.64;64.27
6899;BME280;3488;42.616;23.350;2023-01-06T03:17:30;62889.47;;;8.62;65.81
6899;BME280;3488;42.616;23.350;2023-01-06T03:19:57;62887.97;;;8.63;67.38
6899;BME280;3488;42.616;23.350;2023-01-06T03:22:24;62880.13;;;8.50;68.18
6899;BME280;3488;42.616;23.350;2023-01-06T03:24:52;62869.44;;;8.47;68.16
6899;BME280;3488;42.616;23.350;2023-01-06T03:27:23;62877.16;;;8.55;66.58
6899;BME280;3488;42.616;23.350;2023-01-06T03:29:51;62880.69;;;8.53;67.50
6899;BME280;3488;42.616;23.350;2023-01-06T03:32:22;62870.41;;;8.46;69.28
6899;BME280;3488;42.616;23.350;2023-01-06T03:35:02;62869.28;;;8.40;71.54
6899;BME280;3488;42.616;23.350;2023-01-06T03:37:35;62842.59;;;8.24;72.79
6899;BME280;3488;42.616;23.350;2023-01-06T03:40:13;62851.81;;;8.28;72.54
6899;BME280;3488;42.616;23.350;2023-01-06T03:42:47;62839.97;;;8.18;74.61
6899;BME280;3488;42.616;23.350;2023-01-06T03:45:44;62836.34;;;8.15;73.37
6899;BME280;3488;42.616;23.350;2023-01-06T03:48:21;62841.41;;;8.15;73.12
6899;BME280;3488;42.616;23.350;2023-01-06T03:50:56;62831.09;;;8.05;73.81
6899;BME280;3488;42.616;23.350;2023-01-06T03:53:34;62827.03;;;8.06;74.70
6899;BME280;3488;42.616;23.350;2023-01-06T03:56:11;62826.47;;;8.00;74.93
6899;BME280;3488;42.616;23.350;2023-01-06T03:58:43;62814.16;;;7.93;75.00
6899;BME280;3488;42.616;23.350;2023-01-06T04:01:12;62822.88;;;7.99;73.50
6899;BME280;3488;42.616;23.350;2023-01-06T04:03:43;62818.28;;;7.97;73.32
6899;BME280;3488;42.616;23.350;2023-01-06T04:06:12;62817.19;;;7.94;72.68
6899;BME280;3488;42.616;23.350;2023-01-06T04:08:39;62813.16;;;7.95;72.66
6899;BME280;3488;42.616;23.350;2023-01-06T04:11:06;62808.94;;;7.86;72.05
6899;BME280;3488;42.616;23.350;2023-01-06T04:13:53;62816.22;;;7.95;71.57
6899;BME280;3488;42.616;23.350;2023-01-06T04:16:19;62818.75;;;7.95;71.40
6899;BME280;3488;42.616;23.350;2023-01-06T04:18:46;62817.72;;;7.94;70.99
6899;BME280;3488;42.616;23.350;2023-01-06T04:21:14;62812.09;;;7.91;70.66
6899;BME280;3488;42.616;23.350;2023-01-06T04:23:41;62826.97;;;8.01;69.81
6899;BME280;3488;42.616;23.350;2023-01-06T04:26:08;62817.78;;;7.97;70.53
6899;BME280;3488;42.616;23.350;2023-01-06T04:28:35;62817.25;;;7.96;71.12
6899;BME280;3488;42.616;23.350;2023-01-06T04:31:03;62802.78;;;7.82;71.38
6899;BME280;3488;42.616;23.350;2023-01-06T04:33:30;62810.53;;;7.90;68.11
6899;BME280;3488;42.616;23.350;2023-01-06T04:35:56;62808.41;;;7.85;68.74
6899;BME280;3488;42.616;23.350;2023-01-06T04:38:24;62814.06;;;7.88;69.56
6899;BME280;3488;42.616;23.350;2023-01-06T04:40:51;62813.03;;;7.87;70.87
6899;BME280;3488;42.616;23.350;2023-01-06T04:43:18;62802.75;;;7.80;72.11
6899;BME280;3488;42.616;23.350;2023-01-06T04:45:45;62798.66;;;7.78;72.76
6899;BME280;3488;42.616;23.350;2023-01-06T04:48:13;62797.09;;;7.77;71.27
6899;BME280;3488;42.616;23.350;2023-01-06T04:50:40;62808.91;;;7.83;70.39
6899;BME280;3488;42.616;23.350;2023-01-06T04:53:08;62808.38;;;7.83;70.13
6899;BME280;3488;42.616;23.350;2023-01-06T04:55:38;62799.63;;;7.77;69.83
6899;BME280;3488;42.616;23.350;2023-01-06T04:58:06;62799.22;;;7.81;70.45
6899;BME280;3488;42.616;23.350;2023-01-06T05:00:33;62800.72;;;7.80;70.44
6899;BME280;3488;42.616;23.350;2023-01-06T05:03:00;62804.34;;;7.84;70.49
6899;BME280;3488;42.616;23.350;2023-01-06T05:05:27;62802.75;;;7.80;72.18
6899;BME280;3488;42.616;23.350;2023-01-06T05:07:54;62802.22;;;7.79;73.12
6899;BME280;3488;42.616;23.350;2023-01-06T05:10:21;62792.50;;;7.75;73.42
6899;BME280;3488;42.616;23.350;2023-01-06T05:12:49;62793.00;;;7.73;73.63
6899;BME280;3488;42.616;23.350;2023-01-06T05:15:16;62797.56;;;7.75;73.65
6899;BME280;3488;42.616;23.350;2023-01-06T05:17:43;62799.59;;;7.74;74.24
6899;BME280;3488;42.616;23.350;2023-01-06T05:20:10;62789.38;;;7.69;74.39
6899;BME280;3488;42.616;23.350;2023-01-06T05:22:37;62793.47;;;7.71;75.00
6899;BME280;3488;42.616;23.350;2023-01-06T05:25:05;62787.25;;;7.65;74.29
6899;BME280;3488;42.616;23.350;2023-01-06T05:27:32;62781.56;;;7.59;74.58
6899;BME280;3488;42.616;23.350;2023-01-06T05:30:01;62783.69;;;7.64;72.51
6899;BME280;3488;42.616;23.350;2023-01-06T05:32:27;62779.09;;;7.62;68.88
6899;BME280;3488;42.616;23.350;2023-01-06T05:34:54;62802.63;;;7.75;67.92
6899;BME280;3488;42.616;23.350;2023-01-06T05:37:21;62784.22;;;7.64;67.34
6899;BME280;3488;42.616;23.350;2023-01-06T05:39:48;62780.56;;;7.58;68.47
6899;BME280;3488;42.616;23.350;2023-01-06T05:42:16;62792.38;;;7.67;68.46
6899;BME280;3488;42.616;23.350;2023-01-06T05:44:43;62786.22;;;7.64;68.31
6899;BME280;3488;42.616;23.350;2023-01-06T05:47:11;62787.25;;;7.65;68.06
6899;BME280;3488;42.616;23.350;2023-01-06T05:49:38;62781.09;;;7.61;68.70
6899;BME280;3488;42.616;23.350;2023-01-06T05:52:05;62778.00;;;7.58;67.62
6899;BME280;3488;42.616;23.350;2023-01-06T05:54:32;62780.09;;;7.60;65.52
6899;BME280;3488;42.616;23.350;2023-01-06T05:56:59;62779.56;;;7.60;65.42
6899;BME280;3488;42.616;23.350;2023-01-06T05:59:26;62780.09;;;7.60;65.41
6899;BME280;3488;42.616;23.350;2023-01-06T06:01:53;62783.63;;;7.61;64.38
6899;BME280;3488;42.616;23.350;2023-01-06T06:04:21;62785.25;;;7.65;64.24
6899;BME280;3488;42.616;23.350;2023-01-06T06:06:48;62791.84;;;7.67;64.68
6899;BME280;3488;42.616;23.350;2023-01-06T06:09:15;62775.94;;;7.56;64.78
6899;BME280;3488;42.616;23.350;2023-01-06T06:11:42;62787.25;;;7.65;65.04
6899;BME280;3488;42.616;23.350;2023-01-06T06:14:09;62780.13;;;7.63;64.72
6899;BME280;3488;42.616;23.350;2023-01-06T06:16:36;62787.25;;;7.65;63.23
6899;BME280;3488;42.616;23.350;2023-01-06T06:19:02;62789.84;;;7.67;62.62
6899;BME280;3488;42.616;23.350;2023-01-06T06:21:31;62795.53;;;7.73;60.86
6899;BME280;3488;42.616;23.350;2023-01-06T06:23:59;62792.47;;;7.72;60.62
6899;BME280;3488;42.616;23.350;2023-01-06T06:26:26;62803.84;;;7.83;61.02
6899;BME280;3488;42.616;23.350;2023-01-06T06:28:54;62806.31;;;7.81;60.88
6899;BME280;3488;42.616;23.350;2023-01-06T06:31:23;62801.25;;;7.81;61.47
6899;BME280;3488;42.616;23.350;2023-01-06T06:33:51;62801.25;;;7.81;61.55
6899;BME280;3488;42.616;23.350;2023-01-06T06:36:18;62799.69;;;7.79;61.76
6899;BME280;3488;42.616;23.350;2023-01-06T06:38:48;62812.03;;;7.89;62.29
6899;BME280;3488;42.616;23.350;2023-01-06T06:41:15;62802.78;;;7.82;62.92
6899;BME280;3488;42.616;23.350;2023-01-06T06:43:43;62816.09;;;7.90;62.91
6899;BME280;3488;42.616;23.350;2023-01-06T06:46:10;62813.53;;;7.88;63.05
6899;BME280;3488;42.616;23.350;2023-01-06T06:48:38;62813.06;;;7.90;62.83
6899;BME280;3488;42.616;23.350;2023-01-06T06:51:07;62812.03;;;7.89;62.00
6899;BME280;3488;42.616;23.350;2023-01-06T06:53:34;62822.94;;;8.02;61.78
6899;BME280;3488;42.616;23.350;2023-01-06T06:56:05;62823.91;;;8.00;62.33
6899;BME280;3488;42.616;23.350;2023-01-06T06:58:32;62833.78;;;8.12;61.57
6899;BME280;3488;42.616;23.350;2023-01-06T07:01:02;62821.88;;;8.01;61.55
6899;BME280;3488;42.616;23.350;2023-01-06T07:03:29;62829.59;;;8.06;60.12
6899;BME280;3488;42.616;23.350;2023-01-06T07:05:57;62840.44;;;8.16;61.42
6899;BME280;3488;42.616;23.350;2023-01-06T07:08:24;62845.66;;;8.24;60.75
6899;BME280;3488;42.616;23.350;2023-01-06T07:10:52;62841.50;;;8.20;59.30
6899;BME280;3488;42.616;23.350;2023-01-06T07:13:20;62863.06;;;8.34;59.02
6899;BME280;3488;42.616;23.350;2023-01-06T07:15:47;62869.38;;;8.45;57.87
6899;BME280;3488;42.616;23.350;2023-01-06T07:18:14;62885.38;;;8.60;58.13
6899;BME280;3488;42.616;23.350;2023-01-06T07:20:45;62887.50;;;8.65;57.53
6899;BME280;3488;42.616;23.350;2023-01-06T07:23:13;62926.69;;;8.98;55.56
6899;BME280;3488;42.616;23.350;2023-01-06T07:28:15;62905.06;;;8.82;56.98
6899;BME280;3488;42.616;23.350;2023-01-06T07:30:43;62914.88;;;8.91;57.30
6899;BME280;3488;42.616;23.350;2023-01-06T07:33:10;62890.56;;;8.65;58.59
6899;BME280;3488;42.616;23.350;2023-01-06T07:35:40;62882.78;;;8.58;58.56
6899;BME280;3488;42.616;23.350;2023-01-06T07:38:08;62874.00;;;8.49;58.78
6899;BME280;3488;42.616;23.350;2023-01-06T07:40:35;62877.06;;;8.50;59.15
6899;BME280;3488;42.616;23.350;2023-01-06T07:43:03;62867.34;;;8.45;59.39
6899;BME280;3488;42.616;23.350;2023-01-06T07:45:32;62867.34;;;8.45;59.10
6899;BME280;3488;42.616;23.350;2023-01-06T07:48:02;62873.00;;;8.48;59.13
6899;BME280;3488;42.616;23.350;2023-01-06T07:50:35;62865.81;;;8.44;58.72
6899;BME280;3488;42.616;23.350;2023-01-06T07:53:02;62867.78;;;8.41;59.39
6899;BME280;3488;42.616;23.350;2023-01-06T07:55:29;62865.81;;;8.44;58.83
6899;BME280;3488;42.616;23.350;2023-01-06T07:57:56;62874.50;;;8.47;58.92
6899;BME280;3488;42.616;23.350;2023-01-06T08:00:24;62873.53;;;8.51;59.32
6899;BME280;3488;42.616;23.350;2023-01-06T08:02:51;62871.53;;;8.52;58.72
6899;BME280;3488;42.616;23.350;2023-01-06T08:05:21;62874.63;;;8.55;58.43
6899;BME280;3488;42.616;23.350;2023-01-06T08:07:48;62875.53;;;8.48;59.34
6899;BME280;3488;42.616;23.350;2023-01-06T08:10:15;62875.09;;;8.53;59.35
6899;BME280;3488;42.616;23.350;2023-01-06T08:12:42;62881.78;;;8.57;59.17
6899;BME280;3488;42.616;23.350;2023-01-06T08:15:10;62882.84;;;8.60;58.89
6899;BME280;3488;42.616;23.350;2023-01-06T08:17:37;62870.91;;;8.46;58.51
6899;BME280;3488;42.616;23.350;2023-01-06T08:20:04;62875.06;;;8.50;58.70
6899;BME280;3488;42.616;23.350;2023-01-06T08:22:33;62884.41;;;8.62;58.46
6899;BME280;3488;42.616;23.350;2023-01-06T08:25:00;62898.78;;;8.71;58.36
6899;BME280;3488;42.616;23.350;2023-01-06T08:27:27;62887.53;;;8.67;57.41
6899;BME280;3488;42.616;23.350;2023-01-06T08:29:55;62911.25;;;8.88;56.51
6899;BME280;3488;42.616;23.350;2023-01-06T08:32:22;62911.72;;;8.86;55.94
6899;BME280;3488;42.616;23.350;2023-01-06T08:34:49;62906.03;;;8.80;55.69
6899;BME280;3488;42.616;23.350;2023-01-06T08:37:16;62913.81;;;8.88;55.47
6899;BME280;3488;42.616;23.350;2023-01-06T08:39:45;62927.75;;;9.01;55.73
6899;BME280;3488;42.616;23.350;2023-01-06T08:42:12;62923.06;;;8.94;56.34
6899;BME280;3488;42.616;23.350;2023-01-06T08:44:39;62933.97;;;9.07;57.07
6899;BME280;3488;42.616;23.350;2023-01-06T08:47:06;62950.50;;;9.23;56.85
6899;BME280;3488;42.616;23.350;2023-01-06T08:49:33;62941.19;;;9.14;56.13
6899;BME280;3488;42.616;23.350;2023-01-06T08:52:00;62927.19;;;8.98;56.74
6899;BME280;3488;42.616;23.350;2023-01-06T08:54:27;62927.19;;;8.98;56.85
6899;BME280;3488;42.616;23.350;2023-01-06T08:56:56;62929.81;;;9.03;56.47
6899;BME280;3488;42.616;23.350;2023-01-06T08:59:23;62935.97;;;9.07;56.77
6899;BME280;3488;42.616;23.350;2023-01-06T09:01:50;62933.38;;;9.04;56.81
6899;BME280;3488;42.616;23.350;2023-01-06T09:04:17;62938.06;;;9.09;57.19
6899;BME280;3488;42.616;23.350;2023-01-06T09:06:44;62932.97;;;9.09;56.50
6899;BME280;3488;42.616;23.350;2023-01-06T09:09:12;62945.84;;;9.19;56.51
6899;BME280;3488;42.616;23.350;2023-01-06T09:11:40;62944.31;;;9.17;55.74
6899;BME280;3488;42.616;23.350;2023-01-06T09:14:09;62952.63;;;9.28;56.59
6899;BME280;3488;42.616;23.350;2023-01-06T09:16:38;62964.41;;;9.34;55.67
6899;BME280;3488;42.616;23.350;2023-01-06T09:19:05;62951.16;;;9.31;56.04
6899;BME280;3488;42.616;23.350;2023-01-06T09:21:34;62960.84;;;9.33;55.75
6899;BME280;3488;42.616;23.350;2023-01-06T09:24:02;62967.00;;;9.37;55.61
6899;BME280;3488;42.616;23.350;2023-01-06T09:26:29;62926.69;;;8.98;57.51
6899;BME280;3488;42.616;23.350;2023-01-06T09:28:56;62937.06;;;9.10;57.13
6899;BME280;3488;42.616;23.350;2023-01-06T09:31:25;62932.44;;;9.08;57.05
6899;BME280;3488;42.616;23.350;2023-01-06T09:33:52;62945.38;;;9.21;57.21
6899;BME280;3488;42.616;23.350;2023-01-06T09:36:19;62956.66;;;9.27;56.52
6899;BME280;3488;42.616;23.350;2023-01-06T09:38:46;62959.28;;;9.32;56.25
6899;BME280;3488;42.616;23.350;2023-01-06T09:44:14;62960.28;;;9.30;56.76
6899;BME280;3488;42.616;23.350;2023-01-06T09:46:45;62952.09;;;9.27;57.24
6899;BME280;3488;42.616;23.350;2023-01-06T09:49:19;62962.34;;;9.32;57.83
6899;BME280;3488;42.616;23.350;2023-01-06T09:51:51;62947.91;;;9.21;58.23
6899;BME280;3488;42.616;23.350;2023-01-06T09:54:22;62973.19;;;9.43;55.68
6899;BME280;3488;42.616;23.350;2023-01-06T09:56:53;62982.03;;;9.54;56.23
6899;BME280;3488;42.616;23.350;2023-01-06T09:59:27;62983.06;;;9.55;56.71
6899;BME280;3488;42.616;23.350;2023-01-06T10:01:59;62981.03;;;9.56;55.84
6899;BME280;3488;42.616;23.350;2023-01-06T10:04:29;63002.19;;;9.74;54.05
6899;BME280;3488;42.616;23.350;2023-01-06T10:07:10;63007.38;;;9.79;53.95
6899;BME280;3488;42.616;23.350;2023-01-06T10:09:48;63011.97;;;9.81;52.92
6899;BME280;3488;42.616;23.350;2023-01-06T10:12:29;62998.06;;;9.70;53.33
6899;BME280;3488;42.616;23.350;2023-01-06T10:15:05;63019.78;;;9.91;52.57
6899;BME280;3488;42.616;23.350;2023-01-06T10:17:46;63007.25;;;9.71;53.75
6899;BME280;3488;42.616;23.350;2023-01-06T10:20:35;63003.28;;;9.77;53.15
6899;BME280;3488;42.616;23.350;2023-01-06T10:23:16;63012.50;;;9.81;53.41
6899;BME280;3488;42.616;23.350;2023-01-06T10:26:02;62997.09;;;9.74;53.40
6899;BME280;3488;42.616;23.350;2023-01-06T10:28:34;63019.78;;;9.91;53.10
6899;BME280;3488;42.616;23.350;2023-01-06T10:31:03;63019.28;;;9.90;53.41
6899;BME280;3488;42.616;23.350;2023-01-06T10:33:36;63022.94;;;9.96;53.37
6899;BME280;3488;42.616;23.350;2023-01-06T10:36:11;63011.56;;;9.85;51.63
6899;BME280;3488;42.616;23.350;2023-01-06T10:38:41;63013.09;;;9.87;51.32
6899;BME280;3488;42.616;23.350;2023-01-06T10:41:14;63019.28;;;9.90;50.93
6899;BME280;3488;42.616;23.350;2023-01-06T10:43:43;63026.00;;;9.97;51.13
6899;BME280;3488;42.616;23.350;2023-01-06T10:46:10;63035.69;;;9.99;50.67
6899;BME280;3488;42.616;23.350;2023-01-06T10:48:39;63019.81;;;9.93;51.04
6899;BME280;3488;42.616;23.350;2023-01-06T10:51:28;63024.94;;;9.96;51.90
6899;BME280;3488;42.616;23.350;2023-01-06T10:54:00;63019.28;;;9.90;51.66
6899;BME280;3488;42.616;23.350;2023-01-06T10:56:31;63033.72;;;10.02;51.63
6899;BME280;3488;42.616;23.350;2023-01-06T10:59:05;63020.84;;;9.94;52.46
6899;BME280;3488;42.616;23.350;2023-01-06T11:01:46;63035.78;;;10.04;52.62
6899;BME280;3488;42.616;23.350;2023-01-06T11:04:17;63031.09;;;9.99;52.34
6899;BME280;3488;42.616;23.350;2023-01-06T11:06:50;63038.88;;;10.07;52.54
6899;BME280;3488;42.616;23.350;2023-01-06T11:09:25;63018.28;;;9.92;52.09
6899;BME280;3488;42.616;23.350;2023-01-06T11:11:54;63027.50;;;9.96;52.10
6899;BME280;3488;42.616;23.350;2023-01-06T11:14:25;63024.38;;;9.93;52.39
6899;BME280;3488;42.616;23.350;2023-01-06T11:17:00;63028.06;;;9.99;51.60
6899;BME280;3488;42.616;23.350;2023-01-06T11:19:36;63043.63;;;10.16;51.97
6899;BME280;3488;42.616;23.350;2023-01-06T11:22:04;63042.53;;;10.10;52.09
6899;BME280;3488;42.616;23.350;2023-01-06T11:24:32;63040.50;;;10.11;51.00
6899;BME280;3488;42.616;23.350;2023-01-06T11:27:15;63043.63;;;10.16;50.65
6899;BME280;3488;42.616;23.350;2023-01-06T11:29:42;63032.75;;;10.06;52.11
6899;BME280;3488;42.616;23.350;2023-01-06T11:32:14;63033.22;;;10.04;52.13
6899;BME280;3488;42.616;23.350;2023-01-06T11:34:51;63010.06;;;9.89;54.09
6899;BME280;3488;42.616;23.350;2023-01-06T11:37:29;63009.41;;;9.78;54.27
6899;BME280;3488;42.616;23.350;2023-01-06T11:39:57;62975.81;;;9.48;55.14
6899;BME280;3488;42.616;23.350;2023-01-06T11:42:25;62985.69;;;9.60;54.63
6899;BME280;3488;42.616;23.350;2023-01-06T11:44:52;62968.63;;;9.44;54.90
6899;BME280;3488;42.616;23.350;2023-01-06T11:47:22;62996.00;;;9.68;54.43
6899;BME280;3488;42.616;23.350;2023-01-06T11:49:53;62989.84;;;9.64;53.57
6899;BME280;3488;42.616;23.350;2023-01-06T11:52:24;63005.28;;;9.77;53.53
6899;BME280;3488;42.616;23.350;2023-01-06T11:55:00;63000.63;;;9.70;54.69
6899;BME280;3488;42.616;23.350;2023-01-06T11:57:34;63000.63;;;9.70;55.27
6899;BME280;3488;42.616;23.350;2023-01-06T12:00:21;63000.09;;;9.69;54.76
6899;BME280;3488;42.616;23.350;2023-01-06T12:02:57;62989.84;;;9.64;54.93
6899;BME280;3488;42.616;23.350;2023-01-06T12:05:34;62999.09;;;9.71;55.03
6899;BME280;3488;42.616;23.350;2023-01-06T12:08:10;62995.94;;;9.65;54.78
6899;BME280;3488;42.616;23.350;2023-01-06T12:10:42;62972.72;;;9.45;55.10
6899;BME280;3488;42.616;23.350;2023-01-06T12:13:12;62987.16;;;9.57;54.28
6899;BME280;3488;42.616;23.350;2023-01-06T12:15:42;62990.84;;;9.63;54.10
6899;BME280;3488;42.616;23.350;2023-01-06T12:18:14;62990.84;;;9.63;54.23
6899;BME280;3488;42.616;23.350;2023-01-06T12:20:47;62982.03;;;9.54;54.56
6899;BME280;3488;42.616;23.350;2023-01-06T12:23:19;62970.59;;;9.41;54.52
6899;BME280;3488;42.616;23.350;2023-01-06T12:25:49;62988.22;;;9.60;54.03
6899;BME280;3488;42.616;23.350;2023-01-06T12:28:20;62977.94;;;9.53;54.58
6899;BME280;3488;42.616;23.350;2023-01-06T12:30:57;62986.13;;;9.56;54.69
6899;BME280;3488;42.616;23.350;2023-01-06T12:33:31;62999.03;;;9.68;54.74
6899;BME280;3488;42.616;23.350;2023-01-06T12:36:04;62993.94;;;9.66;54.08
6899;BME280;3488;42.616;23.350;2023-01-06T12:38:46;62973.25;;;9.46;54.64
6899;BME280;3488;42.616;23.350;2023-01-06T12:41:23;62977.34;;;9.47;55.25
6899;BME280;3488;42.616;23.350;2023-01-06T12:43:59;62998.47;;;9.63;54.84
6899;BME280;3488;42.616;23.350;2023-01-06T12:46:33;62998.06;;;9.70;54.53
6899;BME280;3488;42.616;23.350;2023-01-06T12:49:07;62997.03;;;9.69;54.27
6899;BME280;3488;42.616;23.350;2023-01-06T12:51:42;62996.41;;;9.63;53.90
6899;BME280;3488;42.616;23.350;2023-01-06T12:54:13;62987.72;;;9.60;54.56
6899;BME280;3488;42.616;23.350;2023-01-06T12:56:55;62985.16;;;9.60;54.17
6899;BME280;3488;42.616;23.350;2023-01-06T12:59:30;62970.75;;;9.48;53.97
6899;BME280;3488;42.616;23.350;2023-01-06T13:02:10;62992.88;;;9.65;53.88
6899;BME280;3488;42.616;23.350;2023-01-06T13:05:04;62996.00;;;9.68;53.68
6899;BME280;3488;42.616;23.350;2023-01-06T13:07:46;63001.16;;;9.73;53.91
6899;BME280;3488;42.616;23.350;2023-01-06T13:10:23;63003.19;;;9.72;53.85
6899;BME280;3488;42.616;23.350;2023-01-06T13:13:01;63003.19;;;9.72;53.43
6899;BME280;3488;42.616;23.350;2023-01-06T13:15:31;63001.16;;;9.73;53.68
6899;BME280;3488;42.616;23.350;2023-01-06T13:18:08;63004.22;;;9.73;53.49
6899;BME280;3488;42.616;23.350;2023-01-06T13:20:40;62997.00;;;9.66;53.16
6899;BME280;3488;42.616;23.350;2023-01-06T13:23:33;62990.22;;;9.57;53.61
6899;BME280;3488;42.616;23.350;2023-01-06T13:26:16;62981.47;;;9.51;53.90
6899;BME280;3488;42.616;23.350;2023-01-06T13:28:52;62966.00;;;9.39;54.24
6899;BME280;3488;42.616;23.350;2023-01-06T13:31:39;62962.94;;;9.38;54.30
6899;BME280;3488;42.616;23.350;2023-01-06T13:34:29;62967.50;;;9.38;54.59
6899;BME280;3488;42.616;23.350;2023-01-06T13:37:25;62959.31;;;9.34;55.22
6899;BME280;3488;42.616;23.350;2023-01-06T13:40:00;62956.69;;;9.29;55.46
6899;BME280;3488;42.616;23.350;2023-01-06T13:42:34;62961.41;;;9.37;55.57
6899;BME280;3488;42.616;23.350;2023-01-06T13:45:04;62955.25;;;9.33;55.70
6899;BME280;3488;42.616;23.350;2023-01-06T13:47:35;62956.22;;;9.31;55.94
6899;BME280;3488;42.616;23.350;2023-01-06T13:50:09;62944.25;;;9.15;55.90